sensor_id;sensor_type;location;lat;lon;timestamp;temperature;humidity
9414;DHT22;4746;35.664;139.738;2022-12-07T00:01:43;11.20;99.90
9414;DHT22;4746;35.664;139.738;2022-12-07T00:04:15;11.20;99.90
9414;DHT22;4746;35.664;139.738;2022-12-07T00:06:51;11.20;99.90
9414;DHT22;4746;35.664;139.738;2022-12-07T00:09:21;11.30;99.90
9414;DHT22;4746;35.664;139.738;2022-12-07T00:11:51;11.30;99.90
9414;DHT22;4746;35.664;139.738;2022-12-07T00:14:19;11.30;99.90
9414;DHT22;4746;35.664;139.738;2022-12-07T00:16:50;11.30;99.90
9414;DHT22;4746;35.664;139.738;2022-12-07T00:19:18;11.30;99.90
9414;DHT22;4746;35.664;139.738;2022-12-07T00:21:46;11.30;99.90
9414;DHT22;4746;35.664;139.738;2022-12-07T00:24:14;11.30;99.90
9414;DHT22;4746;35.664;139.738;2022-12-07T00:26:42;11.30;99.90
9414;DHT22;4746;35.664;139.738;2022-12-07T00:29:21;11.40;99.90
9414;DHT22;4746;35.664;139.738;2022-12-07T00:31:49;11.50;99.90
9414;DHT22;4746;35.664;139.738;2022-12-07T00:34:21;11.50;99.90
9414;DHT22;4746;35.664;139.738;2022-12-07T00:36:49;11.50;99.90
9414;DHT22;4746;35.664;139.738;2022-12-07T00:39:17;11.60;99.90
9414;DHT22;4746;35.664;139.738;2022-12-07T00:41:44;11.60;99.90
9414;DHT22;4746;35.664;139.738;2022-12-07T00:44:12;11.60;99.90
9414;DHT22;4746;35.664;139.738;2022-12-07T00:46:40;11.70;99.90
9414;DHT22;4746;35.664;139.738;2022-12-07T00:49:08;11.70;99.90
9414;DHT22;4746;35.664;139.738;2022-12-07T00:51:35;11.70;99.90
9414;DHT22;4746;35.664;139.738;2022-12-07T00:54:03;11.80;99.90
9414;DHT22;4746;35.664;139.738;2022-12-07T00:56:30;11.80;99.90
9414;DHT22;4746;35.664;139.738;2022-12-07T00:59:00;11.80;99.90
9414;DHT22;4746;35.664;139.738;2022-12-07T01:01:33;11.90;99.90
9414;DHT22;4746;35.664;139.738;2022-12-07T01:04:03;11.90;99.90
9414;DHT22;4746;35.664;139.738;2022-12-07T01:06:32;12.00;99.90
9414;DHT22;4746;35.664;139.738;2022-12-07T01:09:00;12.10;99.90
9414;DHT22;4746;35.664;139.738;2022-12-07T01:11:29;12.10;99.90
9414;DHT22;4746;35.664;139.738;2022-12-07T01:13:59;12.10;99.90
9414;DHT22;4746;35.664;139.738;2022-12-07T01:16:29;12.10;99.90
9414;DHT22;4746;35.664;139.738;2022-12-07T01:19:01;12.10;99.90
9414;DHT22;4746;35.664;139.738;2022-12-07T01:21:34;12.10;99.90
9414;DHT22;4746;35.664;139.738;2022-12-07T01:24:05;12.20;99.90
9414;DHT22;4746;35.664;139.738;2022-12-07T01:26:36;12.20;99.90
9414;DHT22;4746;35.664;139.738;2022-12-07T01:29:03;12.30;99.90
9414;DHT22;4746;35.664;139.738;2022-12-07T01:31:31;12.30;99.90
9414;DHT22;4746;35.664;139.738;2022-12-07T01:34:00;12.40;99.90
9414;DHT22;4746;35.664;139.738;2022-12-07T01:36:30;12.50;99.90
9414;DHT22;4746;35.664;139.738;2022-12-07T01:39:02;12.60;99.90
9414;DHT22;4746;35.664;139.738;2022-12-07T01:41:35;12.60;99.90
9414;DHT22;4746;35.664;139.738;2022-12-07T01:47:02;12.60;99.90
9414;DHT22;4746;35.664;139.738;2022-12-07T01:49:45;12.70;99.90
9414;DHT22;4746;35.664;139.738;2022-12-07T01:52:24;12.80;99.90
9414;DHT22;4746;35.664;139.738;2022-12-07T01:55:06;12.90;99.90
9414;DHT22;4746;35.664;139.738;2022-12-07T01:57:41;13.10;99.90
9414;DHT22;4746;35.664;139.738;2022-12-07T02:00:14;13.30;96.60
9414;DHT22;4746;35.664;139.738;2022-12-07T02:02:54;13.40;90.40
9414;DHT22;4746;35.664;139.738;2022-12-07T02:05:28;13.50;90.90
9414;DHT22;4746;35.664;139.738;2022-12-07T02:07:57;13.50;82.20
9414;DHT22;4746;35.664;139.738;2022-12-07T02:10:28;13.50;83.80
9414;DHT22;4746;35.664;139.738;2022-12-07T02:13:15;13.60;82.60
9414;DHT22;4746;35.664;139.738;2022-12-07T02:24:37;14.10;72.00
9414;DHT22;4746;35.664;139.738;2022-12-07T02:30:51;14.30;69.20
9414;DHT22;4746;35.664;139.738;2022-12-07T02:33:40;14.50;67.00
9414;DHT22;4746;35.664;139.738;2022-12-07T02:39:03;14.60;62.60
9414;DHT22;4746;35.664;139.738;2022-12-07T02:41:44;14.70;61.90
9414;DHT22;4746;35.664;139.738;2022-12-07T02:44:20;14.80;62.10
9414;DHT22;4746;35.664;139.738;2022-12-07T02:46:53;14.80;61.20
9414;DHT22;4746;35.664;139.738;2022-12-07T02:49:30;15.00;60.90
9414;DHT22;4746;35.664;139.738;2022-12-07T02:51:58;15.10;59.60
9414;DHT22;4746;35.664;139.738;2022-12-07T02:54:26;15.30;59.00
9414;DHT22;4746;35.664;139.738;2022-12-07T02:57:14;15.50;58.50
9414;DHT22;4746;35.664;139.738;2022-12-07T03:00:09;15.60;57.10
9414;DHT22;4746;35.664;139.738;2022-12-07T03:02:56;15.90;56.60
9414;DHT22;4746;35.664;139.738;2022-12-07T03:11:10;16.50;54.70
9414;DHT22;4746;35.664;139.738;2022-12-07T03:16:57;16.80;54.70
9414;DHT22;4746;35.664;139.738;2022-12-07T03:19:34;17.20;54.20
9414;DHT22;4746;35.664;139.738;2022-12-07T03:22:11;17.60;54.40
9414;DHT22;4746;35.664;139.738;2022-12-07T03:24:47;17.90;52.90
9414;DHT22;4746;35.664;139.738;2022-12-07T03:27:25;18.00;52.40
9414;DHT22;4746;35.664;139.738;2022-12-07T03:30:24;18.00;50.00
9414;DHT22;4746;35.664;139.738;2022-12-07T03:33:18;17.90;48.20
9414;DHT22;4746;35.664;139.738;2022-12-07T03:38:57;17.90;47.00
9414;DHT22;4746;35.664;139.738;2022-12-07T03:41:41;17.90;47.30
9414;DHT22;4746;35.664;139.738;2022-12-07T03:44:09;18.10;46.90
9414;DHT22;4746;35.664;139.738;2022-12-07T03:49:50;18.80;46.90
9414;DHT22;4746;35.664;139.738;2022-12-07T03:52:26;19.10;45.60
9414;DHT22;4746;35.664;139.738;2022-12-07T03:57:46;19.70;43.70
9414;DHT22;4746;35.664;139.738;2022-12-07T04:00:16;20.10;43.20
9414;DHT22;4746;35.664;139.738;2022-12-07T04:02:45;20.70;42.70
9414;DHT22;4746;35.664;139.738;2022-12-07T04:05:13;21.20;42.10
9414;DHT22;4746;35.664;139.738;2022-12-07T04:07:41;21.70;40.70
9414;DHT22;4746;35.664;139.738;2022-12-07T04:10:09;22.30;40.60
9414;DHT22;4746;35.664;139.738;2022-12-07T04:12:38;22.70;38.50
9414;DHT22;4746;35.664;139.738;2022-12-07T04:15:06;23.00;37.10
9414;DHT22;4746;35.664;139.738;2022-12-07T04:17:34;23.30;36.10
9414;DHT22;4746;35.664;139.738;2022-12-07T04:20:02;23.50;35.40
9414;DHT22;4746;35.664;139.738;2022-12-07T04:22:30;23.60;35.00
9414;DHT22;4746;35.664;139.738;2022-12-07T04:24:58;23.80;33.80
9414;DHT22;4746;35.664;139.738;2022-12-07T04:27:26;24.20;33.50
9414;DHT22;4746;35.664;139.738;2022-12-07T04:29:53;24.50;33.00
9414;DHT22;4746;35.664;139.738;2022-12-07T04:32:22;25.00;33.90
9414;DHT22;4746;35.664;139.738;2022-12-07T04:34:50;25.30;31.70
9414;DHT22;4746;35.664;139.738;2022-12-07T04:37:18;25.50;33.00
9414;DHT22;4746;35.664;139.738;2022-12-07T04:39:46;25.50;30.90
9414;DHT22;4746;35.664;139.738;2022-12-07T04:42:13;25.40;31.70
9414;DHT22;4746;35.664;139.738;2022-12-07T04:44:41;25.50;31.50
9414;DHT22;4746;35.664;139.738;2022-12-07T04:47:08;25.40;30.20
9414;DHT22;4746;35.664;139.738;2022-12-07T04:49:36;25.70;31.60
9414;DHT22;4746;35.664;139.738;2022-12-07T04:52:03;25.90;30.30
9414;DHT22;4746;35.664;139.738;2022-12-07T04:54:31;26.10;29.40
9414;DHT22;4746;35.664;139.738;2022-12-07T04:56:59;26.20;28.20
9414;DHT22;4746;35.664;139.738;2022-12-07T04:59:26;26.30;28.20
9414;DHT22;4746;35.664;139.738;2022-12-07T05:01:54;26.40;27.60
9414;DHT22;4746;35.664;139.738;2022-12-07T05:04:21;26.70;27.60
9414;DHT22;4746;35.664;139.738;2022-12-07T05:06:49;26.70;27.30
9414;DHT22;4746;35.664;139.738;2022-12-07T05:09:16;26.90;27.10
9414;DHT22;4746;35.664;139.738;2022-12-07T05:11:44;26.90;27.00
9414;DHT22;4746;35.664;139.738;2022-12-07T05:14:15;27.10;27.10
9414;DHT22;4746;35.664;139.738;2022-12-07T05:16:46;27.40;27.20
9414;DHT22;4746;35.664;139.738;2022-12-07T05:19:17;27.90;27.20
9414;DHT22;4746;35.664;139.738;2022-12-07T05:21:45;28.40;27.00
9414;DHT22;4746;35.664;139.738;2022-12-07T05:24:14;28.50;26.00
9414;DHT22;4746;35.664;139.738;2022-12-07T05:26:43;28.30;25.40
9414;DHT22;4746;35.664;139.738;2022-12-07T05:29:13;28.20;25.10
9414;DHT22;4746;35.664;139.738;2022-12-07T05:31:43;28.20;25.80
9414;DHT22;4746;35.664;139.738;2022-12-07T05:34:12;28.20;25.60
9414;DHT22;4746;35.664;139.738;2022-12-07T05:36:39;28.20;25.40
9414;DHT22;4746;35.664;139.738;2022-12-07T05:39:07;28.00;25.20
9414;DHT22;4746;35.664;139.738;2022-12-07T05:41:35;27.80;25.50
9414;DHT22;4746;35.664;139.738;2022-12-07T05:44:20;27.60;25.60
9414;DHT22;4746;35.664;139.738;2022-12-07T05:46:48;27.40;25.40
9414;DHT22;4746;35.664;139.738;2022-12-07T05:49:16;27.10;25.40
9414;DHT22;4746;35.664;139.738;2022-12-07T05:51:43;26.80;25.70
9414;DHT22;4746;35.664;139.738;2022-12-07T05:54:11;26.50;26.10
9414;DHT22;4746;35.664;139.738;2022-12-07T05:56:38;26.30;26.40
9414;DHT22;4746;35.664;139.738;2022-12-07T05:59:07;25.90;26.50
9414;DHT22;4746;35.664;139.738;2022-12-07T06:01:58;25.60;26.80
9414;DHT22;4746;35.664;139.738;2022-12-07T06:04:28;25.20;27.00
9414;DHT22;4746;35.664;139.738;2022-12-07T06:06:58;25.00;27.40
9414;DHT22;4746;35.664;139.738;2022-12-07T06:09:27;24.90;27.60
9414;DHT22;4746;35.664;139.738;2022-12-07T06:11:56;24.80;27.90
9414;DHT22;4746;35.664;139.738;2022-12-07T06:14:43;24.40;27.80
9414;DHT22;4746;35.664;139.738;2022-12-07T06:17:11;24.10;28.00
9414;DHT22;4746;35.664;139.738;2022-12-07T06:19:40;23.70;28.40
9414;DHT22;4746;35.664;139.738;2022-12-07T06:22:09;23.20;28.80
9414;DHT22;4746;35.664;139.738;2022-12-07T06:24:38;22.90;29.50
9414;DHT22;4746;35.664;139.738;2022-12-07T06:27:07;22.70;30.10
9414;DHT22;4746;35.664;139.738;2022-12-07T06:29:34;22.50;30.60
9414;DHT22;4746;35.664;139.738;2022-12-07T06:32:03;22.30;31.20
9414;DHT22;4746;35.664;139.738;2022-12-07T06:34:31;22.20;31.60
9414;DHT22;4746;35.664;139.738;2022-12-07T06:36:58;22.00;31.70
9414;DHT22;4746;35.664;139.738;2022-12-07T06:39:27;21.80;32.10
9414;DHT22;4746;35.664;139.738;2022-12-07T06:41:56;21.50;32.30
9414;DHT22;4746;35.664;139.738;2022-12-07T06:44:25;21.20;32.50
9414;DHT22;4746;35.664;139.738;2022-12-07T06:46:53;20.90;32.80
9414;DHT22;4746;35.664;139.738;2022-12-07T06:49:21;20.70;33.40
9414;DHT22;4746;35.664;139.738;2022-12-07T06:51:48;20.40;33.70
9414;DHT22;4746;35.664;139.738;2022-12-07T06:54:16;20.10;33.70
9414;DHT22;4746;35.664;139.738;2022-12-07T06:56:44;19.90;33.90
9414;DHT22;4746;35.664;139.738;2022-12-07T06:59:12;19.70;34.10
9414;DHT22;4746;35.664;139.738;2022-12-07T07:01:39;19.40;34.00
9414;DHT22;4746;35.664;139.738;2022-12-07T07:04:07;19.10;34.60
9414;DHT22;4746;35.664;139.738;2022-12-07T07:06:35;18.90;34.00
9414;DHT22;4746;35.664;139.738;2022-12-07T07:09:02;18.60;34.20
9414;DHT22;4746;35.664;139.738;2022-12-07T07:11:30;18.30;34.40
9414;DHT22;4746;35.664;139.738;2022-12-07T07:13:58;18.10;34.90
9414;DHT22;4746;35.664;139.738;2022-12-07T07:16:29;17.80;35.30
9414;DHT22;4746;35.664;139.738;2022-12-07T07:18:57;17.50;35.60
9414;DHT22;4746;35.664;139.738;2022-12-07T07:21:25;17.30;36.10
9414;DHT22;4746;35.664;139.738;2022-12-07T07:23:52;17.10;36.50
9414;DHT22;4746;35.664;139.738;2022-12-07T07:26:20;16.90;36.90
9414;DHT22;4746;35.664;139.738;2022-12-07T07:28:47;16.70;37.30
9414;DHT22;4746;35.664;139.738;2022-12-07T07:31:15;16.60;37.50
9414;DHT22;4746;35.664;139.738;2022-12-07T07:33:42;16.40;37.90
9414;DHT22;4746;35.664;139.738;2022-12-07T07:36:11;16.30;38.10
9414;DHT22;4746;35.664;139.738;2022-12-07T07:38:39;16.10;38.60
9414;DHT22;4746;35.664;139.738;2022-12-07T07:41:06;16.00;38.90
9414;DHT22;4746;35.664;139.738;2022-12-07T07:43:34;15.90;39.20
9414;DHT22;4746;35.664;139.738;2022-12-07T07:46:02;15.70;39.20
9414;DHT22;4746;35.664;139.738;2022-12-07T07:48:29;15.60;39.30
9414;DHT22;4746;35.664;139.738;2022-12-07T07:50:57;15.50;39.50
9414;DHT22;4746;35.664;139.738;2022-12-07T07:53:26;15.40;39.90
9414;DHT22;4746;35.664;139.738;2022-12-07T07:55:54;15.30;40.10
9414;DHT22;4746;35.664;139.738;2022-12-07T07:58:22;15.20;40.40
9414;DHT22;4746;35.664;139.738;2022-12-07T08:00:50;15.10;40.60
9414;DHT22;4746;35.664;139.738;2022-12-07T08:03:18;15.00;40.70
9414;DHT22;4746;35.664;139.738;2022-12-07T08:05:46;14.90;40.90
9414;DHT22;4746;35.664;139.738;2022-12-07T08:08:13;14.80;41.30
9414;DHT22;4746;35.664;139.738;2022-12-07T08:10:41;14.70;41.40
9414;DHT22;4746;35.664;139.738;2022-12-07T08:13:08;14.70;41.70
9414;DHT22;4746;35.664;139.738;2022-12-07T08:15:43;14.60;41.80
9414;DHT22;4746;35.664;139.738;2022-12-07T08:18:14;14.60;42.30
9414;DHT22;4746;35.664;139.738;2022-12-07T08:20:42;14.50;42.40
9414;DHT22;4746;35.664;139.738;2022-12-07T08:23:10;14.50;42.60
9414;DHT22;4746;35.664;139.738;2022-12-07T08:25:38;14.40;42.90
9414;DHT22;4746;35.664;139.738;2022-12-07T08:28:06;14.30;43.00
9414;DHT22;4746;35.664;139.738;2022-12-07T08:30:34;14.30;43.20
9414;DHT22;4746;35.664;139.738;2022-12-07T08:33:02;14.30;43.40
9414;DHT22;4746;35.664;139.738;2022-12-07T08:35:32;14.20;43.40
9414;DHT22;4746;35.664;139.738;2022-12-07T08:38:02;14.20;43.60
9414;DHT22;4746;35.664;139.738;2022-12-07T08:40:31;14.20;43.80
9414;DHT22;4746;35.664;139.738;2022-12-07T08:42:58;14.10;43.90
9414;DHT22;4746;35.664;139.738;2022-12-07T08:45:26;14.10;44.20
9414;DHT22;4746;35.664;139.738;2022-12-07T08:48:07;14.10;44.30
9414;DHT22;4746;35.664;139.738;2022-12-07T08:50:39;14.10;44.60
9414;DHT22;4746;35.664;139.738;2022-12-07T08:53:07;14.00;45.10
9414;DHT22;4746;35.664;139.738;2022-12-07T08:55:35;13.90;45.70
9414;DHT22;4746;35.664;139.738;2022-12-07T08:58:03;13.90;46.50
9414;DHT22;4746;35.664;139.738;2022-12-07T09:00:30;13.80;47.00
9414;DHT22;4746;35.664;139.738;2022-12-07T09:02:58;13.80;47.60
9414;DHT22;4746;35.664;139.738;2022-12-07T09:05:27;13.70;48.70
9414;DHT22;4746;35.664;139.738;2022-12-07T09:07:57;13.60;50.00
9414;DHT22;4746;35.664;139.738;2022-12-07T09:10:28;13.60;52.20
9414;DHT22;4746;35.664;139.738;2022-12-07T09:12:56;13.60;53.70
9414;DHT22;4746;35.664;139.738;2022-12-07T09:15:29;13.60;55.10
9414;DHT22;4746;35.664;139.738;2022-12-07T09:17:57;13.60;57.90
9414;DHT22;4746;35.664;139.738;2022-12-07T09:20:25;13.60;60.10
9414;DHT22;4746;35.664;139.738;2022-12-07T09:22:53;13.50;65.10
9414;DHT22;4746;35.664;139.738;2022-12-07T09:25:20;13.40;71.70
9414;DHT22;4746;35.664;139.738;2022-12-07T09:27:48;13.30;75.50
9414;DHT22;4746;35.664;139.738;2022-12-07T09:30:23;13.30;86.00
9414;DHT22;4746;35.664;139.738;2022-12-07T09:32:53;13.20;95.10
9414;DHT22;4746;35.664;139.738;2022-12-07T09:35:24;13.20;97.90
9414;DHT22;4746;35.664;139.738;2022-12-07T09:37:52;13.20;98.90
9414;DHT22;4746;35.664;139.738;2022-12-07T09:40:22;13.20;99.90
9414;DHT22;4746;35.664;139.738;2022-12-07T09:42:53;13.20;99.90
9414;DHT22;4746;35.664;139.738;2022-12-07T09:45:36;13.30;99.90
9414;DHT22;4746;35.664;139.738;2022-12-07T09:48:05;13.30;99.90
9414;DHT22;4746;35.664;139.738;2022-12-07T09:50:43;13.30;99.90
9414;DHT22;4746;35.664;139.738;2022-12-07T09:53:34;13.30;99.90
9414;DHT22;4746;35.664;139.738;2022-12-07T09:56:05;13.30;99.90
9414;DHT22;4746;35.664;139.738;2022-12-07T09:58:34;13.30;99.90
9414;DHT22;4746;35.664;139.738;2022-12-07T10:01:17;13.20;99.90
9414;DHT22;4746;35.664;139.738;2022-12-07T10:04:41;13.20;99.90
9414;DHT22;4746;35.664;139.738;2022-12-07T10:06:51;13.20;99.90
9414;DHT22;4746;35.664;139.738;2022-12-07T10:09:21;13.20;99.90
9414;DHT22;4746;35.664;139.738;2022-12-07T10:12:08;13.10;99.90
9414;DHT22;4746;35.664;139.738;2022-12-07T10:14:59;13.20;99.90
9414;DHT22;4746;35.664;139.738;2022-12-07T10:20:25;13.10;99.90
9414;DHT22;4746;35.664;139.738;2022-12-07T10:25:31;13.00;99.90
9414;DHT22;4746;35.664;139.738;2022-12-07T10:30:57;13.00;99.90
9414;DHT22;4746;35.664;139.738;2022-12-07T10:33:59;13.00;99.90
9414;DHT22;4746;35.664;139.738;2022-12-07T10:36:38;13.00;99.90
9414;DHT22;4746;35.664;139.738;2022-12-07T10:39:21;13.00;99.90
9414;DHT22;4746;35.664;139.738;2022-12-07T10:42:00;12.90;99.90
9414;DHT22;4746;35.664;139.738;2022-12-07T10:44:34;12.90;99.90
9414;DHT22;4746;35.664;139.738;2022-12-07T10:49:55;12.90;99.90
9414;DHT22;4746;35.664;139.738;2022-12-07T10:55:41;12.80;99.90
9414;DHT22;4746;35.664;139.738;2022-12-07T11:10:51;12.70;99.90
9414;DHT22;4746;35.664;139.738;2022-12-07T11:13:41;12.70;99.90
9414;DHT22;4746;35.664;139.738;2022-12-07T11:16:49;12.60;99.90
9414;DHT22;4746;35.664;139.738;2022-12-07T11:19:43;12.60;99.90
9414;DHT22;4746;35.664;139.738;2022-12-07T11:26:31;12.70;99.90
9414;DHT22;4746;35.664;139.738;2022-12-07T11:29:24;12.80;99.90
9414;DHT22;4746;35.664;139.738;2022-12-07T11:35:35;13.10;99.90
9414;DHT22;4746;35.664;139.738;2022-12-07T11:38:17;13.20;99.90
9414;DHT22;4746;35.664;139.738;2022-12-07T11:40:52;13.30;99.90
9414;DHT22;4746;35.664;139.738;2022-12-07T11:43:53;13.50;99.90
9414;DHT22;4746;35.664;139.738;2022-12-07T11:46:49;13.60;99.90
9414;DHT22;4746;35.664;139.738;2022-12-07T11:49:58;13.60;99.90
9414;DHT22;4746;35.664;139.738;2022-12-07T12:06:42;13.40;99.90
9414;DHT22;4746;35.664;139.738;2022-12-07T12:09:19;13.40;99.90
9414;DHT22;4746;35.664;139.738;2022-12-07T12:18:14;13.10;99.90
9414;DHT22;4746;35.664;139.738;2022-12-07T12:20:48;13.00;99.90
9414;DHT22;4746;35.664;139.738;2022-12-07T12:23:43;12.90;99.90
9414;DHT22;4746;35.664;139.738;2022-12-07T12:26:20;12.80;99.90
9414;DHT22;4746;35.664;139.738;2022-12-07T12:29:13;12.70;99.90
9414;DHT22;4746;35.664;139.738;2022-12-07T12:35:02;12.70;99.90
9414;DHT22;4746;35.664;139.738;2022-12-07T12:37:53;12.80;99.90
9414;DHT22;4746;35.664;139.738;2022-12-07T12:42:57;12.70;99.90
9414;DHT22;4746;35.664;139.738;2022-12-07T12:45:27;12.70;99.90
9414;DHT22;4746;35.664;139.738;2022-12-07T12:48:01;12.70;99.90
9414;DHT22;4746;35.664;139.738;2022-12-07T12:57:19;12.70;99.90
9414;DHT22;4746;35.664;139.738;2022-12-07T13:02:31;12.80;99.90
9414;DHT22;4746;35.664;139.738;2022-12-07T13:15:53;12.70;99.90
9414;DHT22;4746;35.664;139.738;2022-12-07T13:20:58;12.60;99.90
9414;DHT22;4746;35.664;139.738;2022-12-07T13:31:52;12.50;99.90
9414;DHT22;4746;35.664;139.738;2022-12-07T13:34:39;12.40;99.90
9414;DHT22;4746;35.664;139.738;2022-12-07T13:37:29;12.40;99.90
9414;DHT22;4746;35.664;139.738;2022-12-07T13:40:00;12.30;99.90
9414;DHT22;4746;35.664;139.738;2022-12-07T13:42:44;12.30;99.90
9414;DHT22;4746;35.664;139.738;2022-12-07T13:45:27;12.30;99.90
9414;DHT22;4746;35.664;139.738;2022-12-07T13:48:49;12.20;99.90
9414;DHT22;4746;35.664;139.738;2022-12-07T13:51:27;12.20;99.90
9414;DHT22;4746;35.664;139.738;2022-12-07T13:54:06;12.20;99.90
9414;DHT22;4746;35.664;139.738;2022-12-07T13:56:37;12.20;99.90
9414;DHT22;4746;35.664;139.738;2022-12-07T13:59:18;12.20;99.90
9414;DHT22;4746;35.664;139.738;2022-12-07T14:01:52;12.20;99.90
9414;DHT22;4746;35.664;139.738;2022-12-07T14:04:33;12.20;99.90
9414;DHT22;4746;35.664;139.738;2022-12-07T14:07:20;12.20;99.90
9414;DHT22;4746;35.664;139.738;2022-12-07T14:10:02;12.10;99.90
9414;DHT22;4746;35.664;139.738;2022-12-07T14:12:35;12.10;99.90
9414;DHT22;4746;35.664;139.738;2022-12-07T14:15:04;12.00;99.90
9414;DHT22;4746;35.664;139.738;2022-12-07T14:17:32;12.00;99.90
9414;DHT22;4746;35.664;139.738;2022-12-07T14:20:01;12.00;99.90
9414;DHT22;4746;35.664;139.738;2022-12-07T14:22:33;11.90;99.90
9414;DHT22;4746;35.664;139.738;2022-12-07T14:25:19;11.80;99.90
9414;DHT22;4746;35.664;139.738;2022-12-07T14:27:56;11.80;99.90
9414;DHT22;4746;35.664;139.738;2022-12-07T14:30:33;11.80;99.90
9414;DHT22;4746;35.664;139.738;2022-12-07T14:33:03;11.70;99.90
9414;DHT22;4746;35.664;139.738;2022-12-07T14:35:32;11.70;99.90
9414;DHT22;4746;35.664;139.738;2022-12-07T14:37:59;11.60;99.90
9414;DHT22;4746;35.664;139.738;2022-12-07T14:40:29;11.60;99.90
9414;DHT22;4746;35.664;139.738;2022-12-07T14:43:00;11.50;99.90
9414;DHT22;4746;35.664;139.738;2022-12-07T14:45:46;11.50;99.90
9414;DHT22;4746;35.664;139.738;2022-12-07T14:48:15;11.40;99.90
9414;DHT22;4746;35.664;139.738;2022-12-07T14:50:45;11.30;99.90
9414;DHT22;4746;35.664;139.738;2022-12-07T14:53:20;11.20;99.90
9414;DHT22;4746;35.664;139.738;2022-12-07T14:55:55;11.20;99.90
9414;DHT22;4746;35.664;139.738;2022-12-07T14:58:23;11.20;99.90
9414;DHT22;4746;35.664;139.738;2022-12-07T15:00:50;11.20;99.90
9414;DHT22;4746;35.664;139.738;2022-12-07T15:03:18;11.20;99.90
9414;DHT22;4746;35.664;139.738;2022-12-07T15:05:46;11.20;99.90
9414;DHT22;4746;35.664;139.738;2022-12-07T15:08:13;11.20;99.90
9414;DHT22;4746;35.664;139.738;2022-12-07T15:10:41;11.20;99.90
9414;DHT22;4746;35.664;139.738;2022-12-07T15:13:08;11.20;99.90
9414;DHT22;4746;35.664;139.738;2022-12-07T15:15:55;11.20;99.90
9414;DHT22;4746;35.664;139.738;2022-12-07T15:18:24;11.30;99.90
9414;DHT22;4746;35.664;139.738;2022-12-07T15:20:51;11.30;99.90
9414;DHT22;4746;35.664;139.738;2022-12-07T15:23:21;11.30;99.90
9414;DHT22;4746;35.664;139.738;2022-12-07T15:25:49;11.30;99.90
9414;DHT22;4746;35.664;139.738;2022-12-07T15:28:17;11.40;99.90
9414;DHT22;4746;35.664;139.738;2022-12-07T15:30:44;11.30;99.90
9414;DHT22;4746;35.664;139.738;2022-12-07T15:33:13;11.40;99.90
9414;DHT22;4746;35.664;139.738;2022-12-07T15:35:44;11.40;99.90
9414;DHT22;4746;35.664;139.738;2022-12-07T15:38:12;11.40;99.90
9414;DHT22;4746;35.664;139.738;2022-12-07T15:40:40;11.50;99.90
9414;DHT22;4746;35.664;139.738;2022-12-07T15:43:10;11.50;99.90
9414;DHT22;4746;35.664;139.738;2022-12-07T15:45:56;11.50;99.90
9414;DHT22;4746;35.664;139.738;2022-12-07T15:48:25;11.40;99.90
9414;DHT22;4746;35.664;139.738;2022-12-07T15:50:53;11.40;99.90
9414;DHT22;4746;35.664;139.738;2022-12-07T15:53:27;11.40;99.90
9414;DHT22;4746;35.664;139.738;2022-12-07T15:55:55;11.30;99.90
9414;DHT22;4746;35.664;139.738;2022-12-07T15:58:22;11.30;99.90
9414;DHT22;4746;35.664;139.738;2022-12-07T16:00:50;11.30;99.90
9414;DHT22;4746;35.664;139.738;2022-12-07T16:03:17;11.30;99.90
9414;DHT22;4746;35.664;139.738;2022-12-07T16:05:52;11.20;99.90
9414;DHT22;4746;35.664;139.738;2022-12-07T16:08:20;11.10;99.90
9414;DHT22;4746;35.664;139.738;2022-12-07T16:10:47;11.10;99.90
9414;DHT22;4746;35.664;139.738;2022-12-07T16:13:15;11.00;99.90
9414;DHT22;4746;35.664;139.738;2022-12-07T16:15:44;11.00;99.90
9414;DHT22;4746;35.664;139.738;2022-12-07T16:18:12;10.90;99.90
9414;DHT22;4746;35.664;139.738;2022-12-07T16:20:39;10.90;99.90
9414;DHT22;4746;35.664;139.738;2022-12-07T16:23:08;10.90;99.90
9414;DHT22;4746;35.664;139.738;2022-12-07T16:25:36;10.90;99.90
9414;DHT22;4746;35.664;139.738;2022-12-07T16:28:03;10.80;99.90
9414;DHT22;4746;35.664;139.738;2022-12-07T16:30:31;10.70;99.90
9414;DHT22;4746;35.664;139.738;2022-12-07T16:33:00;10.70;99.90
9414;DHT22;4746;35.664;139.738;2022-12-07T16:35:29;10.60;99.90
9414;DHT22;4746;35.664;139.738;2022-12-07T16:37:56;10.60;99.90
9414;DHT22;4746;35.664;139.738;2022-12-07T16:40:24;10.60;99.90
9414;DHT22;4746;35.664;139.738;2022-12-07T16:42:51;10.60;99.90
9414;DHT22;4746;35.664;139.738;2022-12-07T16:45:19;10.50;99.90
9414;DHT22;4746;35.664;139.738;2022-12-07T16:47:46;10.50;99.90
9414;DHT22;4746;35.664;139.738;2022-12-07T16:50:14;10.40;99.90
9414;DHT22;4746;35.664;139.738;2022-12-07T16:52:42;10.40;99.90
9414;DHT22;4746;35.664;139.738;2022-12-07T16:55:09;10.40;99.90
9414;DHT22;4746;35.664;139.738;2022-12-07T16:57:37;10.30;99.90
9414;DHT22;4746;35.664;139.738;2022-12-07T17:00:05;10.30;99.90
9414;DHT22;4746;35.664;139.738;2022-12-07T17:02:33;10.30;99.90
9414;DHT22;4746;35.664;139.738;2022-12-07T17:05:00;10.20;99.90
9414;DHT22;4746;35.664;139.738;2022-12-07T17:07:28;10.20;99.90
9414;DHT22;4746;35.664;139.738;2022-12-07T17:09:55;10.20;99.90
9414;DHT22;4746;35.664;139.738;2022-12-07T17:12:23;10.20;99.90
9414;DHT22;4746;35.664;139.738;2022-12-07T17:14:51;10.20;99.90
9414;DHT22;4746;35.664;139.738;2022-12-07T17:17:37;10.10;99.90
9414;DHT22;4746;35.664;139.738;2022-12-07T17:20:05;10.10;99.90
9414;DHT22;4746;35.664;139.738;2022-12-07T17:22:33;10.10;99.90
9414;DHT22;4746;35.664;139.738;2022-12-07T17:25:00;10.10;99.90
9414;DHT22;4746;35.664;139.738;2022-12-07T17:27:29;10.10;99.90
9414;DHT22;4746;35.664;139.738;2022-12-07T17:29:57;10.10;99.90
9414;DHT22;4746;35.664;139.738;2022-12-07T17:32:25;10.10;99.90
9414;DHT22;4746;35.664;139.738;2022-12-07T17:34:53;10.10;99.90
9414;DHT22;4746;35.664;139.738;2022-12-07T17:37:20;10.10;99.90
9414;DHT22;4746;35.664;139.738;2022-12-07T17:39:48;10.20;99.90
9414;DHT22;4746;35.664;139.738;2022-12-07T17:42:16;10.20;99.90
9414;DHT22;4746;35.664;139.738;2022-12-07T17:45:03;10.20;99.90
9414;DHT22;4746;35.664;139.738;2022-12-07T17:47:31;10.20;99.90
9414;DHT22;4746;35.664;139.738;2022-12-07T17:49:59;10.20;99.90
9414;DHT22;4746;35.664;139.738;2022-12-07T17:52:27;10.20;99.90
9414;DHT22;4746;35.664;139.738;2022-12-07T17:55:12;10.20;99.90
9414;DHT22;4746;35.664;139.738;2022-12-07T17:57:40;10.20;99.90
9414;DHT22;4746;35.664;139.738;2022-12-07T18:00:08;10.20;99.90
9414;DHT22;4746;35.664;139.738;2022-12-07T18:02:37;10.30;99.90
9414;DHT22;4746;35.664;139.738;2022-12-07T18:05:06;10.20;99.90
9414;DHT22;4746;35.664;139.738;2022-12-07T18:07:34;10.20;99.90
9414;DHT22;4746;35.664;139.738;2022-12-07T18:10:01;10.20;99.90